Time;durP1;ratioP1;P1;durP2;ratioP2;P2;SDS_P1;SDS_P2;PMS_P1;PMS_P2;Temp;Humidity;BMP_temperature;BMP_pressure;BME280_temperature;BME280_humidity;BME280_pressure;Samples;Min_cycle;Max_cycle;Signal;HPM_P1;HPM_P2
2021/08/27 00:01:08;;;;;;;5.90;4.05;;;;;;;;;;5054152;28;20454;-82
2021/08/27 00:03:34;;;;;;;6.50;3.20;;;;;;;;;;5044355;28;20213;-82
2021/08/27 00:06:00;;;;;;;6.22;2.85;;;;;;;;;;5042182;28;21063;-83
2021/08/27 00:08:26;;;;;;;7.65;2.80;;;;;;;;;;5046786;28;20177;-82
2021/08/27 00:10:52;;;;;;;6.27;3.33;;;;;;;;;;5043961;28;20181;-83
2021/08/27 00:13:18;;;;;;;7.00;3.30;;;;;;;;;;5045638;28;20595;-82
2021/08/27 00:15:44;;;;;;;5.05;3.38;;;;;;;;;;5041189;28;20440;-83
2021/08/27 00:18:10;;;;;;;6.55;3.60;;;;;;;;;;5057398;28;20701;-82
2021/08/27 00:20:38;;;;;;;4.85;3.20;;;;;;;;;;5063108;28;20193;-82
2021/08/27 00:23:04;;;;;;;6.10;2.80;;;;;;;;;;5052875;28;20644;-82
2021/08/27 00:25:30;;;;;;;7.20;2.75;;;;;;;;;;5051230;28;20202;-83
2021/08/27 00:27:56;;;;;;;6.37;3.10;;;;;;;;;;5044730;28;20383;-82
2021/08/27 00:30:22;;;;;;;7.68;3.28;;;;;;;;;;5039726;28;20433;-82
2021/08/27 00:32:48;;;;;;;5.88;3.28;;;;;;;;;;5046288;28;20174;-82
2021/08/27 00:35:14;;;;;;;9.50;3.30;;;;;;;;;;5046868;28;20170;-83
2021/08/27 00:37:40;;;;;;;5.35;2.90;;;;;;;;;;5045208;28;20444;-82
2021/08/27 00:40:06;;;;;;;4.53;3.00;;;;;;;;;;5045778;28;20243;-82
2021/08/27 00:42:32;;;;;;;6.30;3.45;;;;;;;;;;5040482;28;20186;-82
2021/08/27 00:44:58;;;;;;;5.90;2.63;;;;;;;;;;5057500;28;20184;-83
2021/08/27 00:47:24;;;;;;;5.33;3.10;;;;;;;;;;5045123;28;20514;-82
2021/08/27 00:49:50;;;;;;;5.40;4.00;;;;;;;;;;5046078;28;20436;-83
2021/08/27 00:52:16;;;;;;;6.28;3.75;;;;;;;;;;5047759;28;20424;-83
2021/08/27 00:54:48;;;;;;;11.00;4.03;;;;;;;;;;5049022;28;20185;-83
2021/08/27 00:57:14;;;;;;;7.35;3.80;;;;;;;;;;5044639;28;20333;-82
2021/08/27 00:59:40;;;;;;;6.72;2.83;;;;;;;;;;5050367;28;20212;-82
2021/08/27 01:02:07;;;;;;;6.07;3.10;;;;;;;;;;5049175;28;20186;-82
2021/08/27 01:04:33;;;;;;;10.15;3.25;;;;;;;;;;5049174;28;20439;-83
2021/08/27 01:07:02;;;;;;;8.73;3.40;;;;;;;;;;5048592;28;20209;-82
2021/08/27 01:09:40;;;;;;;7.22;3.10;;;;;;;;;;5044196;28;20193;-82
2021/08/27 01:12:15;;;;;;;8.15;3.80;;;;;;;;;;5030501;28;20208;-83
2021/08/27 01:14:43;;;;;;;10.43;3.80;;;;;;;;;;5049379;28;20177;-83
2021/08/27 01:17:15;;;;;;;7.53;2.85;;;;;;;;;;5049007;28;20289;-81
2021/08/27 01:19:47;;;;;;;5.40;3.42;;;;;;;;;;5048959;28;20245;-83
2021/08/27 01:22:27;;;;;;;5.63;3.45;;;;;;;;;;5047361;28;20528;-83
2021/08/27 01:24:54;;;;;;;7.55;3.60;;;;;;;;;;5047406;28;20203;-82
2021/08/27 01:27:21;;;;;;;6.45;4.15;;;;;;;;;;5043343;28;20245;-82
2021/08/27 01:29:47;;;;;;;5.15;2.90;;;;;;;;;;5049470;28;20201;-82
2021/08/27 01:32:18;;;;;;;5.67;3.87;;;;;;;;;;5047712;28;20182;-82
2021/08/27 01:34:45;;;;;;;6.20;3.65;;;;;;;;;;5048752;28;21016;-82
2021/08/27 01:37:21;;;;;;;6.50;3.78;;;;;;;;;;5048267;28;20208;-83
2021/08/27 01:39:52;;;;;;;6.65;3.22;;;;;;;;;;5048256;28;20180;-82
2021/08/27 01:42:21;;;;;;;5.80;2.90;;;;;;;;;;5027594;28;20177;-83
2021/08/27 01:44:48;;;;;;;9.25;3.50;;;;;;;;;;5047666;28;20182;-83
2021/08/27 01:47:16;;;;;;;6.65;3.15;;;;;;;;;;5058164;28;20282;-83
2021/08/27 01:49:42;;;;;;;8.00;3.90;;;;;;;;;;5052464;28;20205;-82
2021/08/27 01:52:08;;;;;;;5.63;3.65;;;;;;;;;;5056631;28;20200;-82
2021/08/27 01:54:35;;;;;;;7.38;3.65;;;;;;;;;;5046161;28;20184;-83
2021/08/27 01:57:02;;;;;;;8.35;4.38;;;;;;;;;;5046278;28;20241;-83
2021/08/27 01:59:30;;;;;;;12.10;3.90;;;;;;;;;;5062126;28;20168;-82
2021/08/27 02:01:56;;;;;;;7.90;3.35;;;;;;;;;;5053114;28;20188;-82
2021/08/27 02:04:23;;;;;;;7.82;3.65;;;;;;;;;;5055495;28;20192;-82
2021/08/27 02:06:49;;;;;;;6.68;3.00;;;;;;;;;;5047591;28;20209;-82
2021/08/27 02:09:15;;;;;;;5.55;3.75;;;;;;;;;;5042525;28;20178;-82
2021/08/27 02:11:42;;;;;;;9.88;4.03;;;;;;;;;;5048758;28;20560;-82
2021/08/27 02:14:08;;;;;;;9.75;3.70;;;;;;;;;;5046707;28;20182;-82
2021/08/27 02:16:34;;;;;;;8.18;3.45;;;;;;;;;;5047334;28;20240;-82
2021/08/27 02:19:00;;;;;;;7.05;3.92;;;;;;;;;;5042719;28;20240;-82
2021/08/27 02:21:30;;;;;;;9.60;3.33;;;;;;;;;;5057897;28;20178;-82
2021/08/27 02:23:57;;;;;;;8.05;4.05;;;;;;;;;;5044568;28;20650;-82
2021/08/27 02:26:23;;;;;;;4.55;3.95;;;;;;;;;;5047458;28;20198;-82
2021/08/27 02:28:50;;;;;;;7.43;3.33;;;;;;;;;;5046306;28;20252;-83
2021/08/27 02:31:16;;;;;;;6.05;3.80;;;;;;;;;;5046005;28;20209;-82
2021/08/27 02:33:44;;;;;;;6.68;3.70;;;;;;;;;;5044360;28;20185;-82
2021/08/27 02:36:13;;;;;;;7.03;2.97;;;;;;;;;;5057967;28;20196;-83
2021/08/27 02:38:40;;;;;;;7.53;4.47;;;;;;;;;;5057904;28;20220;-82
2021/08/27 02:41:06;;;;;;;7.88;3.75;;;;;;;;;;5044481;28;20268;-83
2021/08/27 02:43:32;;;;;;;6.03;3.63;;;;;;;;;;5046583;28;20241;-82
2021/08/27 02:45:58;;;;;;;6.22;2.92;;;;;;;;;;5045511;28;20497;-82
2021/08/27 02:48:24;;;;;;;6.25;3.92;;;;;;;;;;5041089;28;20213;-82
2021/08/27 02:50:56;;;;;;;9.15;3.45;;;;;;;;;;5057658;28;20180;-82
2021/08/27 02:53:24;;;;;;;7.30;3.65;;;;;;;;;;5033576;28;20179;-82
2021/08/27 02:55:55;;;;;;;5.78;3.55;;;;;;;;;;5046431;28;20190;-82
2021/08/27 02:58:22;;;;;;;8.25;3.40;;;;;;;;;;5044574;28;20190;-82
2021/08/27 03:00:55;;;;;;;7.50;4.05;;;;;;;;;;5056373;28;20184;-82
2021/08/27 03:03:26;;;;;;;7.68;3.63;;;;;;;;;;5041197;28;20205;-82
2021/08/27 03:05:55;;;;;;;8.90;4.20;;;;;;;;;;5044433;28;20204;-82
2021/08/27 03:08:24;;;;;;;9.20;5.38;;;;;;;;;;5076149;28;20180;-82
2021/08/27 03:10:56;;;;;;;8.63;4.13;;;;;;;;;;5047966;28;20180;-82
2021/08/27 03:13:29;;;;;;;8.30;3.92;;;;;;;;;;5044521;28;20206;-82
2021/08/27 03:16:01;;;;;;;7.38;3.67;;;;;;;;;;5044182;28;20186;-82
2021/08/27 03:18:34;;;;;;;10.30;4.33;;;;;;;;;;4999166;28;1218218;-82
2021/08/27 03:21:02;;;;;;;7.00;3.60;;;;;;;;;;5058939;28;20184;-82
2021/08/27 03:23:29;;;;;;;7.72;3.70;;;;;;;;;;5058860;28;20179;-82
2021/08/27 03:25:56;;;;;;;10.07;3.30;;;;;;;;;;5045270;28;20211;-82
2021/08/27 03:28:26;;;;;;;5.47;3.03;;;;;;;;;;5044612;28;20709;-82
2021/08/27 03:30:53;;;;;;;7.32;4.13;;;;;;;;;;5044530;28;20181;-82
2021/08/27 03:33:20;;;;;;;8.48;4.07;;;;;;;;;;5058116;28;20637;-82
2021/08/27 03:35:48;;;;;;;7.55;3.17;;;;;;;;;;5047684;28;20180;-82
2021/08/27 03:38:14;;;;;;;6.47;3.85;;;;;;;;;;5057831;28;20178;-82
2021/08/27 03:40:41;;;;;;;4.05;3.30;;;;;;;;;;5040579;28;20215;-82
2021/08/27 03:43:07;;;;;;;4.55;3.25;;;;;;;;;;5043877;28;20182;-82
2021/08/27 03:45:34;;;;;;;7.72;3.88;;;;;;;;;;5042787;28;20285;-82
2021/08/27 03:48:00;;;;;;;9.45;3.83;;;;;;;;;;5043312;28;20195;-82
2021/08/27 03:50:27;;;;;;;6.45;3.78;;;;;;;;;;5058035;28;20255;-82
2021/08/27 03:52:53;;;;;;;5.35;3.28;;;;;;;;;;5043371;28;20204;-82
2021/08/27 03:55:21;;;;;;;9.73;4.05;;;;;;;;;;5045334;28;20178;-82
2021/08/27 03:57:48;;;;;;;4.13;2.65;;;;;;;;;;5045149;28;20188;-82
2021/08/27 04:00:14;;;;;;;7.30;3.13;;;;;;;;;;5024054;28;20720;-82
2021/08/27 04:02:41;;;;;;;8.57;4.03;;;;;;;;;;5046654;28;20208;-82
2021/08/27 04:05:17;;;;;;;8.30;4.35;;;;;;;;;;5046596;28;20672;-82
2021/08/27 04:07:43;;;;;;;6.82;4.05;;;;;;;;;;5045818;28;20230;-82
2021/08/27 04:10:10;;;;;;;4.95;3.83;;;;;;;;;;5045250;28;20679;-82
2021/08/27 04:12:39;;;;;;;6.35;3.58;;;;;;;;;;5043017;28;20200;-82
2021/08/27 04:15:06;;;;;;;8.85;3.70;;;;;;;;;;5040566;28;20195;-82
2021/08/27 04:17:32;;;;;;;6.78;3.55;;;;;;;;;;5048275;28;20216;-81
2021/08/27 04:19:58;;;;;;;10.77;3.90;;;;;;;;;;5045742;28;20236;-82
2021/08/27 04:22:24;;;;;;;7.63;3.65;;;;;;;;;;5045815;28;20182;-82
2021/08/27 04:24:51;;;;;;;5.03;3.45;;;;;;;;;;5046236;28;20651;-82
2021/08/27 04:27:17;;;;;;;12.38;4.38;;;;;;;;;;5045467;28;20224;-82
2021/08/27 04:29:43;;;;;;;5.63;3.35;;;;;;;;;;5058411;28;20211;-82
2021/08/27 04:32:09;;;;;;;7.22;3.97;;;;;;;;;;5049998;28;20187;-82
2021/08/27 04:34:35;;;;;;;9.07;3.90;;;;;;;;;;5049657;28;20189;-82
2021/08/27 04:37:01;;;;;;;8.23;3.90;;;;;;;;;;5050265;28;20276;-82
2021/08/27 04:39:27;;;;;;;9.70;4.50;;;;;;;;;;5046163;28;20209;-82
2021/08/27 04:41:53;;;;;;;5.82;3.35;;;;;;;;;;5047237;28;20176;-82
2021/08/27 04:44:19;;;;;;;11.20;4.25;;;;;;;;;;5049548;28;20180;-82
2021/08/27 04:46:45;;;;;;;8.20;3.73;;;;;;;;;;5047700;28;20211;-82
2021/08/27 04:49:11;;;;;;;6.63;4.07;;;;;;;;;;5049661;28;20792;-82
2021/08/27 04:51:37;;;;;;;6.90;4.57;;;;;;;;;;5047464;28;20235;-82
2021/08/27 04:54:03;;;;;;;6.90;3.60;;;;;;;;;;5045516;28;20252;-82
2021/08/27 04:56:29;;;;;;;12.88;4.45;;;;;;;;;;5049864;28;20201;-82
2021/08/27 04:58:55;;;;;;;7.93;3.80;;;;;;;;;;5047535;28;20190;-82
2021/08/27 05:01:21;;;;;;;10.15;4.35;;;;;;;;;;5047328;28;20440;-82
2021/08/27 05:03:47;;;;;;;5.10;3.53;;;;;;;;;;5044219;28;20269;-82
2021/08/27 05:06:13;;;;;;;12.55;4.00;;;;;;;;;;5058790;28;20476;-82
2021/08/27 05:08:39;;;;;;;7.40;3.78;;;;;;;;;;5050722;28;20170;-83
2021/08/27 05:11:05;;;;;;;6.65;3.65;;;;;;;;;;5047859;28;20288;-82
2021/08/27 05:13:32;;;;;;;12.65;4.28;;;;;;;;;;5054278;28;20268;-82
2021/08/27 05:15:57;;;;;;;8.77;3.83;;;;;;;;;;5058745;28;20219;-83
2021/08/27 05:18:24;;;;;;;10.63;4.40;;;;;;;;;;5043921;28;20191;-82
2021/08/27 05:20:50;;;;;;;7.57;4.15;;;;;;;;;;5048967;28;20422;-82
2021/08/27 05:23:16;;;;;;;15.17;5.37;;;;;;;;;;5049557;28;20211;-82
2021/08/27 05:25:42;;;;;;;6.68;3.88;;;;;;;;;;5047987;28;20463;-82
2021/08/27 05:28:08;;;;;;;13.60;3.77;;;;;;;;;;5051978;28;20185;-82
2021/08/27 05:30:34;;;;;;;8.23;3.97;;;;;;;;;;5056593;28;20781;-82
2021/08/27 05:33:00;;;;;;;12.30;4.57;;;;;;;;;;5060106;28;20200;-82
2021/08/27 05:35:26;;;;;;;8.60;4.15;;;;;;;;;;5049702;28;20178;-82
2021/08/27 05:37:52;;;;;;;9.33;5.13;;;;;;;;;;5042598;28;20192;-82
2021/08/27 05:40:18;;;;;;;10.50;5.70;;;;;;;;;;5047274;28;20431;-82
2021/08/27 05:42:44;;;;;;;5.93;3.97;;;;;;;;;;5059342;28;20275;-82
2021/08/27 05:45:11;;;;;;;11.60;4.88;;;;;;;;;;5044211;28;20261;-82
2021/08/27 05:47:37;;;;;;;7.45;4.60;;;;;;;;;;5049879;28;20197;-82
2021/08/27 05:50:04;;;;;;;10.13;3.85;;;;;;;;;;5055036;28;20525;-82
2021/08/27 05:52:30;;;;;;;7.07;4.13;;;;;;;;;;5054548;28;20178;-83
2021/08/27 05:54:56;;;;;;;15.27;5.15;;;;;;;;;;5047876;28;20197;-82
2021/08/27 05:57:22;;;;;;;10.03;4.03;;;;;;;;;;5042926;28;20205;-82
2021/08/27 05:59:48;;;;;;;7.00;4.47;;;;;;;;;;5047351;28;20443;-82
2021/08/27 06:02:14;;;;;;;10.70;5.78;;;;;;;;;;5048302;28;20245;-82
2021/08/27 06:04:40;;;;;;;10.20;4.07;;;;;;;;;;5055571;28;20205;-82
2021/08/27 06:07:06;;;;;;;8.43;4.47;;;;;;;;;;5057387;28;20236;-82
2021/08/27 06:09:32;;;;;;;10.07;4.37;;;;;;;;;;5057708;28;20781;-82
2021/08/27 06:11:58;;;;;;;15.10;5.00;;;;;;;;;;5046537;28;20417;-82
2021/08/27 06:14:24;;;;;;;10.37;4.67;;;;;;;;;;5056119;28;20419;-82
2021/08/27 06:16:50;;;;;;;9.30;4.27;;;;;;;;;;5048895;28;20429;-82
2021/08/27 06:19:16;;;;;;;16.58;5.80;;;;;;;;;;5047808;28;20472;-82
2021/08/27 06:21:42;;;;;;;17.63;5.43;;;;;;;;;;5044498;28;20185;-82
2021/08/27 06:24:08;;;;;;;11.10;5.10;;;;;;;;;;5043394;28;20190;-82
2021/08/27 06:26:34;;;;;;;13.32;5.25;;;;;;;;;;5049750;28;20197;-82
2021/08/27 06:29:03;;;;;;;12.30;4.45;;;;;;;;;;5047544;28;20189;-82
2021/08/27 06:31:29;;;;;;;11.77;4.72;;;;;;;;;;5048049;28;20212;-82
2021/08/27 06:33:55;;;;;;;14.82;5.97;;;;;;;;;;5057757;28;20177;-82
2021/08/27 06:36:21;;;;;;;9.67;4.30;;;;;;;;;;5042665;28;20665;-82
2021/08/27 06:38:47;;;;;;;8.45;4.43;;;;;;;;;;5059746;28;20446;-82
2021/08/27 06:41:13;;;;;;;9.38;3.92;;;;;;;;;;5045568;28;20177;-82
2021/08/27 06:43:40;;;;;;;7.20;4.38;;;;;;;;;;5047058;28;20186;-82
2021/08/27 06:46:08;;;;;;;11.73;4.78;;;;;;;;;;5047604;28;20204;-82
2021/08/27 06:48:35;;;;;;;10.50;5.45;;;;;;;;;;5058430;28;20189;-82
2021/08/27 06:51:01;;;;;;;10.82;4.22;;;;;;;;;;5043236;28;20174;-82
2021/08/27 06:53:27;;;;;;;8.77;5.38;;;;;;;;;;5075938;28;20184;-83
2021/08/27 06:55:53;;;;;;;13.25;5.13;;;;;;;;;;5049539;28;20190;-83
2021/08/27 06:58:19;;;;;;;13.13;5.17;;;;;;;;;;5047035;28;20182;-82
2021/08/27 07:00:45;;;;;;;12.90;5.85;;;;;;;;;;5044700;28;20577;-82
2021/08/27 07:03:11;;;;;;;11.57;5.10;;;;;;;;;;5040975;28;20182;-83
2021/08/27 07:05:37;;;;;;;8.75;5.53;;;;;;;;;;5061858;28;20177;-82
2021/08/27 07:08:03;;;;;;;13.88;5.75;;;;;;;;;;5048001;28;20178;-82
2021/08/27 07:10:32;;;;;;;10.48;4.70;;;;;;;;;;5052606;28;20216;-82
2021/08/27 07:12:59;;;;;;;10.88;5.80;;;;;;;;;;5055534;28;20191;-82
2021/08/27 07:15:25;;;;;;;12.18;6.00;;;;;;;;;;5057751;28;20186;-82
2021/08/27 07:17:51;;;;;;;12.60;7.50;;;;;;;;;;5045689;28;20254;-82
2021/08/27 07:20:18;;;;;;;14.32;5.80;;;;;;;;;;5046393;28;20225;-83
2021/08/27 07:22:44;;;;;;;14.10;6.63;;;;;;;;;;5045891;28;20192;-82
2021/08/27 07:25:11;;;;;;;12.48;7.18;;;;;;;;;;5044963;28;20181;-82
2021/08/27 07:27:37;;;;;;;12.85;6.28;;;;;;;;;;5043572;28;20457;-82
2021/08/27 07:30:04;;;;;;;9.65;5.80;;;;;;;;;;5042240;28;20629;-82
2021/08/27 07:32:30;;;;;;;12.80;5.85;;;;;;;;;;5060659;28;20541;-83
2021/08/27 07:34:59;;;;;;;13.25;6.70;;;;;;;;;;5051591;28;20198;-83
2021/08/27 07:37:25;;;;;;;11.25;7.05;;;;;;;;;;5053131;28;20244;-82
2021/08/27 07:39:51;;;;;;;11.55;6.03;;;;;;;;;;5055393;28;20188;-82
2021/08/27 07:42:17;;;;;;;14.48;6.75;;;;;;;;;;5040318;28;20242;-82
2021/08/27 07:44:44;;;;;;;16.23;7.13;;;;;;;;;;5047053;28;20189;-83
2021/08/27 07:47:10;;;;;;;11.57;6.00;;;;;;;;;;5044991;28;20212;-82
2021/08/27 07:49:36;;;;;;;17.75;6.85;;;;;;;;;;5045407;28;20208;-82
2021/08/27 07:52:03;;;;;;;10.95;6.15;;;;;;;;;;5045688;28;20443;-82
2021/08/27 07:54:29;;;;;;;12.57;6.65;;;;;;;;;;5041302;28;20190;-82
2021/08/27 07:56:55;;;;;;;12.25;6.53;;;;;;;;;;5043704;28;20173;-82
2021/08/27 07:59:22;;;;;;;11.85;6.32;;;;;;;;;;5046908;28;20182;-82
2021/08/27 08:01:48;;;;;;;18.05;7.13;;;;;;;;;;5045903;28;20432;-83
2021/08/27 08:04:14;;;;;;;13.48;6.25;;;;;;;;;;5044976;28;20216;-82
2021/08/27 08:06:42;;;;;;;14.57;6.63;;;;;;;;;;5044413;28;20208;-83
2021/08/27 08:09:09;;;;;;;12.80;6.90;;;;;;;;;;5040888;28;20185;-82
2021/08/27 08:11:35;;;;;;;13.13;5.80;;;;;;;;;;5046416;28;20178;-82
2021/08/27 08:14:01;;;;;;;14.55;5.97;;;;;;;;;;5045627;28;20553;-83
2021/08/27 08:16:27;;;;;;;9.38;6.85;;;;;;;;;;5046245;28;20194;-82
2021/08/27 08:18:53;;;;;;;16.27;7.47;;;;;;;;;;5045624;28;20212;-82
2021/08/27 08:21:23;;;;;;;19.75;7.50;;;;;;;;;;5055897;28;20601;-82
2021/08/27 08:23:49;;;;;;;19.00;7.30;;;;;;;;;;5057995;28;21076;-83
2021/08/27 08:26:15;;;;;;;13.82;7.28;;;;;;;;;;5056985;28;20203;-83
2021/08/27 08:28:41;;;;;;;12.73;7.70;;;;;;;;;;5042299;28;20210;-83
2021/08/27 08:31:16;;;;;;;16.50;7.33;;;;;;;;;;5043604;28;20185;-82
2021/08/27 08:33:42;;;;;;;10.63;6.50;;;;;;;;;;5051882;28;20427;-82
2021/08/27 08:36:08;;;;;;;13.73;7.07;;;;;;;;;;5055502;28;20202;-82
2021/08/27 08:38:34;;;;;;;10.90;6.25;;;;;;;;;;5046855;28;20421;-82
2021/08/27 08:41:03;;;;;;;10.40;5.93;;;;;;;;;;5044917;28;20200;-82
2021/08/27 08:43:29;;;;;;;17.45;7.05;;;;;;;;;;5050848;28;20459;-82
2021/08/27 08:45:55;;;;;;;10.55;6.03;;;;;;;;;;5055728;28;20210;-82
2021/08/27 08:48:22;;;;;;;10.20;5.60;;;;;;;;;;5040234;28;20210;-82
2021/08/27 08:50:48;;;;;;;11.63;6.57;;;;;;;;;;5061413;28;20417;-82
2021/08/27 08:53:14;;;;;;;14.02;7.10;;;;;;;;;;5045720;28;20328;-82
2021/08/27 08:55:41;;;;;;;10.80;5.60;;;;;;;;;;5045934;28;20673;-82
2021/08/27 08:58:08;;;;;;;7.30;4.63;;;;;;;;;;5045334;28;20585;-81
2021/08/27 09:00:34;;;;;;;15.27;6.53;;;;;;;;;;5041724;28;20184;-82
2021/08/27 09:03:01;;;;;;;13.05;7.07;;;;;;;;;;5058401;28;20170;-83
2021/08/27 09:05:27;;;;;;;9.18;6.40;;;;;;;;;;5056834;28;20168;-82
2021/08/27 09:07:53;;;;;;;10.35;5.32;;;;;;;;;;5041213;28;20202;-82
2021/08/27 09:10:21;;;;;;;7.25;4.55;;;;;;;;;;5045633;28;20179;-82
2021/08/27 09:12:47;;;;;;;6.57;4.72;;;;;;;;;;5047199;28;20202;-83
2021/08/27 09:15:14;;;;;;;12.20;6.10;;;;;;;;;;5043766;28;20228;-82
2021/08/27 09:17:41;;;;;;;7.40;3.97;;;;;;;;;;5049533;28;20184;-82
2021/08/27 09:20:08;;;;;;;8.32;5.03;;;;;;;;;;5046802;28;20363;-82
2021/08/27 09:22:47;;;;;;;7.18;4.38;;;;;;;;;;5044345;28;20185;-82
2021/08/27 09:25:13;;;;;;;5.32;4.13;;;;;;;;;;5047515;28;20212;-83
2021/08/27 09:27:58;;;;;;;5.35;3.20;;;;;;;;;;5059740;28;20210;-81
2021/08/27 09:30:24;;;;;;;7.50;4.15;;;;;;;;;;5042630;28;20420;-82
2021/08/27 09:32:50;;;;;;;8.13;4.03;;;;;;;;;;5060035;28;20218;-82
2021/08/27 09:35:19;;;;;;;13.03;3.80;;;;;;;;;;5056880;28;20183;-81
2021/08/27 09:37:50;;;;;;;8.50;4.32;;;;;;;;;;5052656;28;20441;-82
2021/08/27 09:40:26;;;;;;;9.82;4.30;;;;;;;;;;5052024;28;20183;-82
2021/08/27 09:42:53;;;;;;;8.55;4.75;;;;;;;;;;5059297;28;20194;-82
2021/08/27 09:45:19;;;;;;;6.30;4.57;;;;;;;;;;5056479;28;20274;-82
2021/08/27 09:47:58;;;;;;;7.70;4.03;;;;;;;;;;5064723;28;20290;-83
2021/08/27 09:50:25;;;;;;;7.32;3.88;;;;;;;;;;5056993;28;20187;-82
2021/08/27 09:52:56;;;;;;;4.20;3.30;;;;;;;;;;5050988;28;20190;-83
2021/08/27 09:55:22;;;;;;;7.85;3.53;;;;;;;;;;5053308;28;20198;-83
2021/08/27 09:57:49;;;;;;;7.00;3.10;;;;;;;;;;5054719;28;20191;-84
2021/08/27 10:00:19;;;;;;;6.57;2.50;;;;;;;;;;5025809;28;20236;-82
2021/08/27 10:02:45;;;;;;;4.32;3.40;;;;;;;;;;5072684;28;20178;-83
2021/08/27 10:05:12;;;;;;;5.18;2.42;;;;;;;;;;5043537;28;20215;-83
2021/08/27 10:07:39;;;;;;;5.47;2.97;;;;;;;;;;5054466;28;20219;-83
2021/08/27 10:10:06;;;;;;;6.35;2.70;;;;;;;;;;5056578;28;20184;-82
2021/08/27 10:12:37;;;;;;;6.20;3.20;;;;;;;;;;5045340;28;20674;-83
2021/08/27 10:15:05;;;;;;;6.57;3.67;;;;;;;;;;5059024;28;20184;-82
2021/08/27 10:17:31;;;;;;;5.75;3.20;;;;;;;;;;5049256;28;20189;-82
2021/08/27 10:19:57;;;;;;;5.50;3.50;;;;;;;;;;5056627;28;20233;-82
2021/08/27 10:22:23;;;;;;;6.10;3.20;;;;;;;;;;5051583;28;20193;-82
2021/08/27 10:24:50;;;;;;;6.38;3.75;;;;;;;;;;5047256;28;20420;-81
2021/08/27 10:27:16;;;;;;;6.87;3.17;;;;;;;;;;5041247;28;20615;-83
2021/08/27 10:29:55;;;;;;;5.22;2.53;;;;;;;;;;5049022;28;20445;-82
2021/08/27 10:32:39;;;;;;;3.08;2.70;;;;;;;;;;5076730;28;20180;-83
2021/08/27 10:35:06;;;;;;;5.88;2.55;;;;;;;;;;5048167;28;20215;-82
2021/08/27 10:37:41;;;;;;;3.55;2.70;;;;;;;;;;5046002;28;20216;-82
2021/08/27 10:40:28;;;;;;;4.65;2.40;;;;;;;;;;5047315;28;20221;-83
2021/08/27 10:42:58;;;;;;;3.13;2.30;;;;;;;;;;5041043;28;20703;-82
2021/08/27 10:45:33;;;;;;;6.70;2.08;;;;;;;;;;5042128;28;20194;-83
2021/08/27 10:48:09;;;;;;;3.65;2.65;;;;;;;;;;5045118;28;20199;-82
2021/08/27 10:50:36;;;;;;;5.03;2.65;;;;;;;;;;5060440;28;20235;-83
2021/08/27 10:53:20;;;;;;;3.55;2.33;;;;;;;;;;5045115;28;20185;-82
2021/08/27 10:55:46;;;;;;;5.28;2.10;;;;;;;;;;5050296;28;20205;-82
2021/08/27 10:58:15;;;;;;;5.43;2.30;;;;;;;;;;5052075;28;20633;-82
2021/08/27 11:00:47;;;;;;;3.72;1.80;;;;;;;;;;5058506;28;20190;-81
2021/08/27 11:03:15;;;;;;;2.45;1.50;;;;;;;;;;5041654;28;20182;-83
2021/08/27 11:05:50;;;;;;;4.80;1.80;;;;;;;;;;5062881;28;20189;-83
2021/08/27 11:08:18;;;;;;;3.35;1.60;;;;;;;;;;5053837;28;20182;-82
2021/08/27 11:11:03;;;;;;;3.60;1.83;;;;;;;;;;5046638;28;20213;-81
2021/08/27 11:13:35;;;;;;;3.53;1.85;;;;;;;;;;5045650;28;20188;-81
2021/08/27 11:16:21;;;;;;;3.60;1.23;;;;;;;;;;5045880;28;20193;-82
2021/08/27 11:18:48;;;;;;;2.40;1.48;;;;;;;;;;5041964;28;20219;-82
2021/08/27 11:21:33;;;;;;;2.35;1.20;;;;;;;;;;5056359;28;20390;-84
2021/08/27 11:24:19;;;;;;;3.47;1.30;;;;;;;;;;5056293;28;20179;-81
2021/08/27 11:26:47;;;;;;;1.80;1.48;;;;;;;;;;5055855;28;20218;-81
2021/08/27 11:29:28;;;;;;;2.08;1.42;;;;;;;;;;5047101;28;20173;-82
2021/08/27 11:31:55;;;;;;;2.22;1.35;;;;;;;;;;5049066;28;20183;-83
2021/08/27 11:34:47;;;;;;;4.18;1.90;;;;;;;;;;5052835;28;20206;-82
2021/08/27 11:37:14;;;;;;;2.50;1.30;;;;;;;;;;5046505;28;20189;-81
2021/08/27 11:39:40;;;;;;;4.07;1.63;;;;;;;;;;5044811;28;20181;-82
2021/08/27 11:42:07;;;;;;;4.50;1.50;;;;;;;;;;5041406;28;20417;-82
2021/08/27 11:44:42;;;;;;;3.40;1.90;;;;;;;;;;5047079;28;20503;-83
2021/08/27 11:47:11;;;;;;;4.53;1.70;;;;;;;;;;5045940;28;20442;-82
2021/08/27 11:49:39;;;;;;;6.77;1.30;;;;;;;;;;5052261;28;20427;-84
2021/08/27 11:52:05;;;;;;;3.37;1.63;;;;;;;;;;5053890;28;20435;-82
2021/08/27 11:54:31;;;;;;;3.83;1.57;;;;;;;;;;5042990;28;20435;-82
2021/08/27 11:56:57;;;;;;;2.80;1.40;;;;;;;;;;5043725;28;20425;-82
2021/08/27 11:59:25;;;;;;;2.37;1.37;;;;;;;;;;5046779;28;20424;-82
2021/08/27 12:01:52;;;;;;;2.70;1.20;;;;;;;;;;5054149;28;20429;-83
2021/08/27 12:04:29;;;;;;;1.67;1.47;;;;;;;;;;5052160;28;20407;-83
2021/08/27 12:07:09;;;;;;;3.30;1.43;;;;;;;;;;5045445;28;20447;-83
2021/08/27 12:09:35;;;;;;;1.90;1.13;;;;;;;;;;5043383;28;20443;-83
2021/08/27 12:12:01;;;;;;;4.33;1.20;;;;;;;;;;5043341;28;20898;-82
2021/08/27 12:14:46;;;;;;;2.00;1.23;;;;;;;;;;5046586;28;20409;-83
2021/08/27 12:17:25;;;;;;;2.87;1.30;;;;;;;;;;5045582;28;20427;-82
2021/08/27 12:20:14;;;;;;;3.70;1.43;;;;;;;;;;5046124;28;20463;-82
2021/08/27 12:22:44;;;;;;;1.60;1.10;;;;;;;;;;5039318;28;20429;-82
2021/08/27 12:25:18;;;;;;;2.30;1.47;;;;;;;;;;5047579;28;20477;-82
2021/08/27 12:27:51;;;;;;;3.30;3.00;;;;;;;;;;5057036;28;20438;-84
2021/08/27 12:30:17;;;;;;;5.43;1.50;;;;;;;;;;5039106;28;20998;-83
2021/08/27 12:32:44;;;;;;;3.13;1.43;;;;;;;;;;5046735;28;20432;-82
2021/08/27 12:35:11;;;;;;;1.73;1.20;;;;;;;;;;5054907;28;20452;-82
2021/08/27 12:37:43;;;;;;;3.43;1.10;;;;;;;;;;5050308;28;20425;-82
2021/08/27 12:40:14;;;;;;;3.20;1.10;;;;;;;;;;5043799;28;20534;-84
2021/08/27 12:42:55;;;;;;;2.33;0.90;;;;;;;;;;5057451;28;20435;-83
2021/08/27 12:45:21;;;;;;;1.27;0.80;;;;;;;;;;5055027;28;20476;-82
2021/08/27 12:47:47;;;;;;;1.63;1.20;;;;;;;;;;5051693;28;20464;-82
2021/08/27 12:50:14;;;;;;;1.23;0.87;;;;;;;;;;5061013;28;20431;-83
2021/08/27 12:52:42;;;;;;;2.20;1.93;;;;;;;;;;5056043;28;20449;-82
2021/08/27 12:55:23;;;;;;;2.57;1.40;;;;;;;;;;5060438;28;20440;-82
2021/08/27 12:57:50;;;;;;;5.67;2.60;;;;;;;;;;5058843;28;20422;-83
2021/08/27 13:00:21;;;;;;;2.40;1.63;;;;;;;;;;5059390;28;20463;-83
2021/08/27 13:02:48;;;;;;;2.10;1.27;;;;;;;;;;5042811;28;20770;-84
2021/08/27 13:05:14;;;;;;;4.20;1.40;;;;;;;;;;5055939;28;20432;-84
2021/08/27 13:07:40;;;;;;;3.90;1.53;;;;;;;;;;5048701;28;20482;-82
2021/08/27 13:10:17;;;;;;;3.27;1.10;;;;;;;;;;5049225;28;20439;-83
2021/08/27 13:12:43;;;;;;;1.70;0.90;;;;;;;;;;5048619;28;20434;-82
2021/08/27 13:15:16;;;;;;;2.37;1.30;;;;;;;;;;5059982;28;20443;-83
2021/08/27 13:18:05;;;;;;;1.27;0.90;;;;;;;;;;5051446;28;20412;-82
2021/08/27 13:20:37;;;;;;;2.63;1.20;;;;;;;;;;5050108;28;20442;-81
2021/08/27 13:23:17;;;;;;;3.57;1.30;;;;;;;;;;5046570;28;20435;-82
2021/08/27 13:25:56;;;;;;;2.27;1.53;;;;;;;;;;5051679;28;20429;-83
2021/08/27 13:28:23;;;;;;;3.57;1.20;;;;;;;;;;5054041;28;20586;-83
2021/08/27 13:30:49;;;;;;;2.93;1.40;;;;;;;;;;5059495;28;20445;-84
2021/08/27 13:33:15;;;;;;;2.87;1.10;;;;;;;;;;5042214;28;20518;-82
2021/08/27 13:35:42;;;;;;;1.50;1.00;;;;;;;;;;5048961;28;20482;-81
2021/08/27 13:38:08;;;;;;;3.00;1.20;;;;;;;;;;5058858;28;20458;-81
2021/08/27 13:40:34;;;;;;;2.17;1.30;;;;;;;;;;5053950;28;20430;-83
2021/08/27 13:43:00;;;;;;;1.97;1.27;;;;;;;;;;5046573;28;20423;-85
2021/08/27 13:45:26;;;;;;;1.60;1.10;;;;;;;;;;5044368;28;20494;-83
2021/08/27 13:47:52;;;;;;;3.80;1.53;;;;;;;;;;5064552;28;20459;-83
2021/08/27 13:50:18;;;;;;;1.63;1.00;;;;;;;;;;5048933;28;20816;-83
2021/08/27 13:52:46;;;;;;;1.70;1.00;;;;;;;;;;5050041;28;20427;-83
2021/08/27 13:55:13;;;;;;;2.23;1.20;;;;;;;;;;5054082;28;20436;-83
2021/08/27 13:57:39;;;;;;;1.80;1.20;;;;;;;;;;5059251;28;20440;-82
2021/08/27 14:00:06;;;;;;;1.93;1.13;;;;;;;;;;5045566;28;20420;-83
2021/08/27 14:02:36;;;;;;;1.77;1.07;;;;;;;;;;5048605;28;20424;-82
2021/08/27 14:05:02;;;;;;;2.37;1.20;;;;;;;;;;5047216;28;20631;-82
2021/08/27 14:07:28;;;;;;;2.73;1.17;;;;;;;;;;5052034;28;20460;-82
2021/08/27 14:09:54;;;;;;;2.40;1.17;;;;;;;;;;5058530;28;20420;-82
2021/08/27 14:12:20;;;;;;;2.23;1.10;;;;;;;;;;5043654;28;20443;-82
2021/08/27 14:14:46;;;;;;;3.53;1.10;;;;;;;;;;5047325;28;20419;-83
2021/08/27 14:17:12;;;;;;;5.97;1.50;;;;;;;;;;5048262;28;20454;-82
2021/08/27 14:19:38;;;;;;;1.40;0.97;;;;;;;;;;5047568;28;21093;-82
2021/08/27 14:22:05;;;;;;;2.00;1.00;;;;;;;;;;5048864;28;20686;-83
2021/08/27 14:24:31;;;;;;;2.80;1.27;;;;;;;;;;5057919;28;20455;-82
2021/08/27 14:26:57;;;;;;;1.30;0.83;;;;;;;;;;5044861;28;20539;-83
2021/08/27 14:29:23;;;;;;;1.40;1.10;;;;;;;;;;5048336;28;20486;-82
2021/08/27 14:31:49;;;;;;;1.83;1.20;;;;;;;;;;5045851;28;20998;-83
2021/08/27 14:34:15;;;;;;;2.50;1.67;;;;;;;;;;5048048;28;20413;-82
2021/08/27 14:36:41;;;;;;;3.53;1.33;;;;;;;;;;5045193;28;20462;-83
2021/08/27 14:39:08;;;;;;;2.10;1.03;;;;;;;;;;5042572;28;20423;-83
2021/08/27 14:41:35;;;;;;;1.67;1.40;;;;;;;;;;5062406;28;20426;-82
2021/08/27 14:44:02;;;;;;;2.87;1.20;;;;;;;;;;5057468;28;20429;-81
2021/08/27 14:46:28;;;;;;;3.60;1.30;;;;;;;;;;5052513;28;20441;-82